createdAt,value
2018-09-13T00:00:28.207Z,7.30
2018-09-13T00:02:56.983Z,6.70
2018-09-13T00:05:26.452Z,7.87
2018-09-13T00:07:55.224Z,7.77
2018-09-13T00:10:24.503Z,7.80
2018-09-13T00:12:53.259Z,8.20
2018-09-13T00:15:22.067Z,6.97
2018-09-13T00:17:50.936Z,6.60
2018-09-13T00:20:19.747Z,9.30
2018-09-13T00:22:48.543Z,6.03
2018-09-13T00:25:17.484Z,6.20
2018-09-13T00:27:46.296Z,8.10
2018-09-13T00:30:15.082Z,6.83
2018-09-13T00:32:43.877Z,8.90
2018-09-13T00:35:12.675Z,6.97
2018-09-13T00:37:41.645Z,7.97
2018-09-13T00:40:10.441Z,7.10
2018-09-13T00:42:39.254Z,8.67
2018-09-13T00:45:08.074Z,9.30
2018-09-13T00:47:41.107Z,7.73
2018-09-13T00:50:10.047Z,9.30
2018-09-13T00:52:38.874Z,7.10
2018-09-13T00:55:07.675Z,8.50
2018-09-13T00:57:36.888Z,12.73
2018-09-13T01:00:05.994Z,7.23
2018-09-13T01:02:34.970Z,6.23
2018-09-13T01:05:03.781Z,7.13
2018-09-13T01:07:32.624Z,7.33
2018-09-13T01:10:01.411Z,6.53
2018-09-13T01:12:30.220Z,7.57
2018-09-13T01:14:59.012Z,8.73
2018-09-13T01:17:27.807Z,6.43
2018-09-13T01:19:56.698Z,7.47
2018-09-13T01:22:25.491Z,15.23
2018-09-13T01:24:56.241Z,6.20
2018-09-13T01:27:26.414Z,6.27
2018-09-13T01:29:55.547Z,7.10
2018-09-13T01:32:24.315Z,7.47
2018-09-13T01:34:53.548Z,8.53
2018-09-13T01:37:22.454Z,7.07
2018-09-13T01:39:51.247Z,6.00
2018-09-13T01:42:19.999Z,9.20
2018-09-13T01:44:48.771Z,8.33
2018-09-13T01:47:17.563Z,7.87
2018-09-13T01:49:46.352Z,7.27
2018-09-13T01:52:15.133Z,8.37
2018-09-13T01:54:44.069Z,6.83
2018-09-13T01:57:12.876Z,6.40
2018-09-13T01:59:41.624Z,6.83
2018-09-13T02:02:10.510Z,8.43
2018-09-13T02:04:39.368Z,7.53
2018-09-13T02:07:08.224Z,5.93
2018-09-13T02:09:36.969Z,7.43
2018-09-13T02:12:05.875Z,6.70
2018-09-13T02:14:34.703Z,8.27
2018-09-13T02:17:03.480Z,6.60
2018-09-13T02:19:32.334Z,5.97
2018-09-13T02:22:01.143Z,7.10
2018-09-13T02:24:29.924Z,8.60
2018-09-13T02:26:58.706Z,5.90
2018-09-13T02:29:27.535Z,6.00
2018-09-13T02:31:56.309Z,6.70
2018-09-13T02:34:25.097Z,7.33
2018-09-13T02:36:54.012Z,5.43
2018-09-13T02:39:22.816Z,5.13
2018-09-13T02:41:51.587Z,4.30
2018-09-13T02:44:20.407Z,6.67
2018-09-13T02:46:49.178Z,7.73
2018-09-13T02:49:17.967Z,5.37
2018-09-13T02:51:46.843Z,6.20
2018-09-13T02:54:15.644Z,4.50
2018-09-13T02:56:44.520Z,7.23
2018-09-13T02:59:13.363Z,7.63
2018-09-13T03:01:42.200Z,8.47
2018-09-13T03:04:11.107Z,10.13
2018-09-13T03:06:39.937Z,7.43
2018-09-13T03:09:10.972Z,5.07
2018-09-13T03:11:40.179Z,5.57
2018-09-13T03:14:09.096Z,7.13
2018-09-13T03:16:37.886Z,5.80
2018-09-13T03:19:07.728Z,7.33
2018-09-13T03:21:36.516Z,5.90
2018-09-13T03:24:06.343Z,5.90
2018-09-13T03:26:35.139Z,5.43
2018-09-13T03:29:03.915Z,5.87
2018-09-13T03:31:32.741Z,6.37
2018-09-13T03:34:01.705Z,7.60
2018-09-13T03:36:30.460Z,5.60
2018-09-13T03:38:59.218Z,8.37
2018-09-13T03:41:28.322Z,10.23
2018-09-13T03:43:57.103Z,6.97
2018-09-13T03:46:25.890Z,5.93
2018-09-13T03:48:54.681Z,6.10
2018-09-13T03:51:24.003Z,9.73
2018-09-13T03:53:52.848Z,7.53
2018-09-13T03:56:21.662Z,6.07
2018-09-13T03:58:50.422Z,8.13
2018-09-13T04:01:19.239Z,9.77
2018-09-13T04:03:48.104Z,8.03
2018-09-13T04:06:16.876Z,6.53
2018-09-13T04:08:45.662Z,8.57
2018-09-13T04:11:14.583Z,7.37
2018-09-13T04:13:43.394Z,9.20
2018-09-13T04:16:12.144Z,7.93
2018-09-13T04:18:40.981Z,6.73
2018-09-13T04:21:09.768Z,8.07
2018-09-13T04:23:38.598Z,7.17
2018-09-13T04:26:07.463Z,7.87
2018-09-13T04:28:36.282Z,6.40
2018-09-13T04:31:05.089Z,9.97
2018-09-13T04:33:33.912Z,6.03
2018-09-13T04:36:02.822Z,7.33
2018-09-13T04:38:31.540Z,9.73
2018-09-13T04:41:00.453Z,9.70
2018-09-13T04:43:29.208Z,10.20
2018-09-13T04:45:57.966Z,9.40
2018-09-13T04:48:26.750Z,9.20
2018-09-13T04:50:55.562Z,8.47
2018-09-13T04:53:24.331Z,6.90
2018-09-13T04:55:53.122Z,7.17
2018-09-13T04:58:21.915Z,8.73
2018-09-13T05:00:50.719Z,10.20
2018-09-13T05:03:19.471Z,7.03
2018-09-13T05:05:48.351Z,9.43
2018-09-13T05:08:17.142Z,9.83
2018-09-13T05:10:46.074Z,10.03
2018-09-13T05:13:14.869Z,10.73
2018-09-13T05:15:43.696Z,9.37
2018-09-13T05:18:12.890Z,8.07
2018-09-13T05:20:41.651Z,16.53
2018-09-13T05:23:10.423Z,11.60
2018-09-13T05:25:39.231Z,8.80
2018-09-13T05:28:08.003Z,11.07
2018-09-13T05:30:36.779Z,9.30
2018-09-13T05:33:05.947Z,7.97
2018-09-13T05:35:34.771Z,10.23
2018-09-13T05:38:03.591Z,8.50
2018-09-13T05:40:32.389Z,9.67
2018-09-13T05:43:01.175Z,8.57
2018-09-13T05:45:30.465Z,9.37
2018-09-13T05:47:59.523Z,7.90
2018-09-13T05:50:28.275Z,8.73
2018-09-13T05:52:57.086Z,7.00
2018-09-13T05:55:26.219Z,8.63
2018-09-13T05:57:55.068Z,9.40
2018-09-13T06:00:24.012Z,7.00
2018-09-13T06:02:52.887Z,6.67
2018-09-13T06:05:21.674Z,8.00
2018-09-13T06:07:50.475Z,11.53
2018-09-13T06:10:19.551Z,10.87
2018-09-13T06:12:48.324Z,7.83
2018-09-13T06:15:17.112Z,6.93
2018-09-13T06:17:46.018Z,8.17
2018-09-13T06:20:14.927Z,10.87
2018-09-13T06:22:43.988Z,10.93
2018-09-13T06:25:12.756Z,7.83
2018-09-13T06:27:41.575Z,6.83
2018-09-13T06:30:10.719Z,7.50
2018-09-13T06:32:39.543Z,8.10
2018-09-13T06:35:08.388Z,8.90
2018-09-13T06:37:37.739Z,9.60
2018-09-13T06:40:07.359Z,12.60
2018-09-13T06:42:36.733Z,18.93
2018-09-13T06:45:06.653Z,16.47
2018-09-13T06:47:35.590Z,10.87
2018-09-13T06:50:04.728Z,8.27
2018-09-13T06:52:33.607Z,9.33
2018-09-13T06:55:02.468Z,9.20
2018-09-13T06:57:31.270Z,9.73
2018-09-13T07:00:00.065Z,7.37
2018-09-13T07:02:28.892Z,8.73
2018-09-13T07:04:58.821Z,13.17
2018-09-13T07:07:28.463Z,8.80
2018-09-13T07:09:57.888Z,8.73
2018-09-13T07:12:26.659Z,9.43
2018-09-13T07:14:55.453Z,11.30
2018-09-13T07:17:24.346Z,10.57
2018-09-13T07:19:53.195Z,9.00
2018-09-13T07:22:21.995Z,8.30
2018-09-13T07:24:50.791Z,8.93
2018-09-13T07:27:19.668Z,10.40
2018-09-13T07:29:48.436Z,10.33
2018-09-13T07:32:17.214Z,12.83
2018-09-13T07:34:46.012Z,10.57
2018-09-13T07:37:14.799Z,11.73
2018-09-13T07:39:44.303Z,9.63
2018-09-13T07:42:13.831Z,10.97
2018-09-13T07:44:43.630Z,9.93
2018-09-13T07:47:13.851Z,9.73
2018-09-13T07:49:43.236Z,11.17
2018-09-13T07:55:15.323Z,8.03
2018-09-13T07:57:44.324Z,8.57
2018-09-13T08:00:14.240Z,6.43
2018-09-13T08:02:43.774Z,5.50
2018-09-13T08:05:13.504Z,6.47
2018-09-13T08:07:42.888Z,8.67
2018-09-13T08:10:12.548Z,7.83
2018-09-13T08:12:42.210Z,8.90
2018-09-13T08:15:11.615Z,9.00
2018-09-13T08:17:40.741Z,9.53
2018-09-13T08:20:10.420Z,6.80
2018-09-13T08:22:40.113Z,5.77
2018-09-13T08:25:09.545Z,10.27
2018-09-13T08:27:39.082Z,10.57
2018-09-13T08:30:08.648Z,7.97
2018-09-13T08:32:37.548Z,5.00
2018-09-13T08:35:06.367Z,7.90
2018-09-13T08:37:35.119Z,6.53
2018-09-13T08:40:03.928Z,7.63
2018-09-13T08:42:32.735Z,12.17
2018-09-13T08:45:01.504Z,6.10
2018-09-13T08:47:30.380Z,5.57
2018-09-13T08:49:59.121Z,7.27
2018-09-13T08:52:27.913Z,8.57
2018-09-13T08:54:56.704Z,9.73
2018-09-13T08:57:25.516Z,8.37
2018-09-13T08:59:54.378Z,10.47
2018-09-13T09:02:23.196Z,7.53
2018-09-13T09:04:52.069Z,6.83
2018-09-13T09:07:20.860Z,9.60
2018-09-13T09:09:49.746Z,7.67
2018-09-13T09:12:18.563Z,7.27
2018-09-13T09:14:47.344Z,7.80
2018-09-13T09:17:16.291Z,6.13
2018-09-13T09:19:45.179Z,8.07
2018-09-13T09:22:13.959Z,10.53
2018-09-13T09:24:42.768Z,6.50
2018-09-13T09:27:11.835Z,8.77
2018-09-13T09:29:40.739Z,8.27
2018-09-13T09:32:09.528Z,10.30
2018-09-13T09:34:38.336Z,8.07
2018-09-13T09:37:07.130Z,12.37
2018-09-13T09:39:35.988Z,11.57
2018-09-13T09:42:04.796Z,9.40
2018-09-13T09:44:33.572Z,8.97
2018-09-13T09:47:02.377Z,7.40
2018-09-13T09:49:31.147Z,6.97
2018-09-13T09:52:00.051Z,9.23
2018-09-13T09:54:28.968Z,7.50
2018-09-13T09:56:57.779Z,10.60
2018-09-13T09:59:26.608Z,8.40
2018-09-13T10:02:00.964Z,6.90
2018-09-13T10:04:29.795Z,6.07
2018-09-13T10:06:58.770Z,8.23
2018-09-13T10:09:27.543Z,7.47
2018-09-13T10:11:56.383Z,7.30
2018-09-13T10:14:25.185Z,9.67
2018-09-13T10:16:59.439Z,5.80
2018-09-13T10:19:33.818Z,8.73
2018-09-13T10:22:08.088Z,7.23
2018-09-13T10:24:42.194Z,13.70
2018-09-13T10:27:16.466Z,8.30
2018-09-13T10:29:50.888Z,7.77
2018-09-13T10:32:25.120Z,8.67
2018-09-13T10:34:59.450Z,7.20
2018-09-13T10:37:33.699Z,6.17
2018-09-13T10:40:07.973Z,6.33
2018-09-13T10:42:42.350Z,6.63
2018-09-13T10:45:16.679Z,7.87
2018-09-13T10:47:56.783Z,8.40
2018-09-13T10:50:26.904Z,6.50
2018-09-13T10:52:58.386Z,6.80
2018-09-13T10:55:28.466Z,7.23
2018-09-13T10:57:57.230Z,8.93
2018-09-13T11:00:26.087Z,7.90
2018-09-13T11:02:54.901Z,8.60
2018-09-13T11:05:23.662Z,6.20
2018-09-13T11:07:52.484Z,7.27
2018-09-13T11:10:21.472Z,5.13
2018-09-13T11:12:52.959Z,6.33
2018-09-13T11:15:27.237Z,6.00
2018-09-13T11:17:56.035Z,6.40
2018-09-13T11:20:24.820Z,6.30
2018-09-13T11:22:53.698Z,6.63
2018-09-13T11:25:23.284Z,7.57
2018-09-13T11:27:52.204Z,5.57
2018-09-13T11:30:20.995Z,8.20
2018-09-13T11:32:49.749Z,8.60
2018-09-13T11:35:18.677Z,6.87
2018-09-13T11:37:47.461Z,5.80
2018-09-13T11:40:16.386Z,8.30
2018-09-13T11:42:45.061Z,8.67
2018-09-13T11:45:13.827Z,6.67
2018-09-13T11:47:42.683Z,7.77
2018-09-13T11:50:11.448Z,5.97
2018-09-13T11:52:40.226Z,6.03
2018-09-13T11:55:09.037Z,8.33
2018-09-13T11:57:37.843Z,6.03
2018-09-13T12:00:07.252Z,8.10
2018-09-13T12:02:36.048Z,10.83
2018-09-13T12:05:05.145Z,7.17
2018-09-13T12:07:33.925Z,9.67
2018-09-13T12:10:02.723Z,11.43
2018-09-13T12:12:31.536Z,7.57
2018-09-13T12:15:00.319Z,6.97
2018-09-13T12:17:29.408Z,7.60
2018-09-13T12:19:58.189Z,9.27
2018-09-13T12:22:27.006Z,8.83
2018-09-13T12:24:55.779Z,7.87
2018-09-13T12:27:24.607Z,9.90
2018-09-13T12:29:53.356Z,7.03
2018-09-13T12:32:22.223Z,8.80
2018-09-13T12:34:51.038Z,9.40
2018-09-13T12:37:19.908Z,7.67
2018-09-13T12:39:48.777Z,10.63
2018-09-13T12:42:17.583Z,10.60
2018-09-13T12:44:46.407Z,8.43
2018-09-13T12:47:15.224Z,10.07
2018-09-13T12:49:44.216Z,10.23
2018-09-13T12:52:13.022Z,9.50
2018-09-13T12:54:41.880Z,11.30
2018-09-13T12:57:10.663Z,13.13
2018-09-13T12:59:39.494Z,11.07
2018-09-13T13:02:08.278Z,10.00
2018-09-13T13:04:37.092Z,11.27
2018-09-13T13:07:05.862Z,7.93
2018-09-13T13:09:34.728Z,9.97
2018-09-13T13:12:03.515Z,12.47
2018-09-13T13:14:32.316Z,8.40
2018-09-13T13:17:01.258Z,7.90
2018-09-13T13:19:30.313Z,8.60
2018-09-13T13:21:59.043Z,8.20
2018-09-13T13:24:27.832Z,9.77
2018-09-13T13:26:56.684Z,6.57
2018-09-13T13:29:25.478Z,6.67
2018-09-13T13:31:55.257Z,7.10
2018-09-13T13:34:24.033Z,7.47
2018-09-13T13:36:52.791Z,10.47
2018-09-13T13:39:21.579Z,8.10
2018-09-13T13:41:50.385Z,6.93
2018-09-13T13:44:19.171Z,7.63
2018-09-13T13:46:48.066Z,6.00
2018-09-13T13:49:16.861Z,8.47
2018-09-13T13:51:45.619Z,10.67
2018-09-13T13:54:14.670Z,9.03
2018-09-13T13:56:43.522Z,7.70
2018-09-13T13:59:12.299Z,7.57
2018-09-13T14:01:41.092Z,7.67
2018-09-13T14:04:09.943Z,10.90
2018-09-13T14:06:38.905Z,11.60
2018-09-13T14:09:09.852Z,9.83
2018-09-13T14:11:38.655Z,10.27
2018-09-13T14:14:07.426Z,9.03
2018-09-13T14:16:36.284Z,6.75
2018-09-13T14:19:05.070Z,9.45
2018-09-13T14:21:33.840Z,7.53
2018-09-13T14:24:02.616Z,7.30
2018-09-13T14:26:31.404Z,9.35
2018-09-13T14:29:00.192Z,11.10
2018-09-13T14:31:29.079Z,7.87
2018-09-13T14:33:57.936Z,7.97
2018-09-13T14:36:26.724Z,8.55
2018-09-13T14:38:55.492Z,6.53
2018-09-13T14:41:25.285Z,11.95
2018-09-13T14:43:54.028Z,8.93
2018-09-13T14:46:22.835Z,6.47
2018-09-13T14:48:51.630Z,8.08
2018-09-13T14:51:20.463Z,8.08
2018-09-13T14:53:49.236Z,12.23
2018-09-13T14:56:18.085Z,7.27
2018-09-13T14:58:46.911Z,8.07
2018-09-13T15:01:15.699Z,8.20
2018-09-13T15:03:44.576Z,8.70
2018-09-13T15:06:13.353Z,7.83
2018-09-13T15:08:42.174Z,6.00
2018-09-13T15:11:11.132Z,6.23
2018-09-13T15:13:40.288Z,6.50
2018-09-13T15:16:09.024Z,7.03
2018-09-13T15:18:37.816Z,6.00
2018-09-13T15:21:06.602Z,6.93
2018-09-13T15:23:35.379Z,5.80
2018-09-13T15:26:04.143Z,6.47
2018-09-13T15:28:32.995Z,6.47
2018-09-13T15:31:01.858Z,6.67
2018-09-13T15:33:30.572Z,6.40
2018-09-13T15:35:59.346Z,5.80
2018-09-13T15:38:28.156Z,6.07
2018-09-13T15:40:56.915Z,5.63
2018-09-13T15:43:25.890Z,6.67
2018-09-13T15:45:54.708Z,8.47
2018-09-13T15:48:23.520Z,8.03
2018-09-13T15:50:52.410Z,7.83
2018-09-13T15:53:21.196Z,8.63
2018-09-13T15:55:50.247Z,12.57
2018-09-13T15:58:19.045Z,9.90
2018-09-13T16:00:47.859Z,8.07
2018-09-13T16:03:16.642Z,9.83
2018-09-13T16:05:45.463Z,9.33
2018-09-13T16:08:14.269Z,7.23
2018-09-13T16:10:43.055Z,9.20
2018-09-13T16:13:12.038Z,7.73
2018-09-13T16:15:40.724Z,9.23
2018-09-13T16:18:09.739Z,8.40
2018-09-13T16:20:38.537Z,6.53
2018-09-13T16:23:07.308Z,8.37
2018-09-13T16:25:36.111Z,7.00
2018-09-13T16:28:04.945Z,6.37
2018-09-13T16:30:33.775Z,6.07
2018-09-13T16:33:02.559Z,6.37
2018-09-13T16:35:31.360Z,8.03
2018-09-13T16:38:07.544Z,4.93
2018-09-13T16:40:41.827Z,6.67
2018-09-13T16:43:13.300Z,4.93
2018-09-13T16:45:42.076Z,5.30
2018-09-13T16:48:10.876Z,3.77
2018-09-13T16:50:39.665Z,4.13
2018-09-13T16:53:08.453Z,3.23
2018-09-13T16:55:37.775Z,3.60
2018-09-13T16:58:14.539Z,3.50
2018-09-13T17:00:43.511Z,3.20
2018-09-13T17:03:12.348Z,3.70
2018-09-13T17:05:41.116Z,3.97
2018-09-13T17:08:10.180Z,2.83
2018-09-13T17:10:39.012Z,3.03
2018-09-13T17:13:07.824Z,3.60
2018-09-13T17:15:36.725Z,2.40
2018-09-13T17:18:06.609Z,2.80
2018-09-13T17:20:35.388Z,2.77
2018-09-13T17:23:04.192Z,2.70
2018-09-13T17:25:33.103Z,2.90
2018-09-13T17:28:02.147Z,2.97
2018-09-13T17:30:30.923Z,18.87
2018-09-13T17:32:59.803Z,8.07
2018-09-13T17:35:29.404Z,3.63
2018-09-13T17:37:58.380Z,8.57
2018-09-13T17:40:28.172Z,8.97
2018-09-13T17:42:56.999Z,6.63
2018-09-13T17:45:26.352Z,8.67
2018-09-13T17:47:55.691Z,3.10
2018-09-13T17:50:24.507Z,3.70
2018-09-13T17:52:53.274Z,2.50
2018-09-13T17:55:22.066Z,3.00
2018-09-13T17:57:50.889Z,2.43
2018-09-13T18:00:19.733Z,6.90
2018-09-13T18:02:48.531Z,3.23
2018-09-13T18:05:17.375Z,4.07
2018-09-13T18:07:46.184Z,5.03
2018-09-13T18:10:14.971Z,2.90
2018-09-13T18:12:43.751Z,3.07
2018-09-13T18:15:12.634Z,4.30
2018-09-13T18:17:41.379Z,3.43
2018-09-13T18:20:10.215Z,2.73
2018-09-13T18:22:39.043Z,3.43
2018-09-13T18:25:07.846Z,2.27
2018-09-13T18:27:36.892Z,3.23
2018-09-13T18:30:06.452Z,4.07
2018-09-13T18:32:35.269Z,4.50
2018-09-13T18:35:04.076Z,4.07
2018-09-13T18:37:32.860Z,3.10
2018-09-13T18:40:01.665Z,3.80
2018-09-13T18:42:30.517Z,3.50
2018-09-13T18:44:59.312Z,2.67
2018-09-13T18:47:28.175Z,2.77
2018-09-13T18:49:56.991Z,2.73
2018-09-13T18:52:25.932Z,2.57
2018-09-13T18:54:54.757Z,2.67
2018-09-13T18:57:23.568Z,3.33
2018-09-13T18:59:52.448Z,4.63
2018-09-13T19:02:21.240Z,4.00
2018-09-13T19:04:50.159Z,3.87
2018-09-13T19:07:19.020Z,3.83
2018-09-13T19:09:47.931Z,3.07
2018-09-13T19:12:16.741Z,2.90
2018-09-13T19:14:46.194Z,2.93
2018-09-13T19:17:15.082Z,2.90
2018-09-13T19:19:43.987Z,2.60
2018-09-13T19:22:12.840Z,4.37
2018-09-13T19:24:41.636Z,3.07
2018-09-13T19:27:11.812Z,2.83
2018-09-13T19:29:40.682Z,4.50
2018-09-13T19:32:09.521Z,2.97
2018-09-13T19:34:38.304Z,2.97
2018-09-13T19:37:07.181Z,3.33
2018-09-13T19:39:36.622Z,3.63
2018-09-13T19:42:05.479Z,3.87
2018-09-13T19:44:34.298Z,3.33
2018-09-13T19:47:04.187Z,3.43
2018-09-13T19:49:32.976Z,3.07
2018-09-13T19:52:01.875Z,3.27
2018-09-13T19:54:31.935Z,4.87
2018-09-13T19:57:00.975Z,4.80
2018-09-13T19:59:31.890Z,5.27
2018-09-13T20:02:00.774Z,5.80
2018-09-13T20:04:29.783Z,3.57
2018-09-13T20:06:58.584Z,3.83
2018-09-13T20:09:28.446Z,5.40
2018-09-13T20:11:57.320Z,3.30
2018-09-13T20:14:26.129Z,3.60
2018-09-13T20:16:54.972Z,3.50
2018-09-13T20:19:23.914Z,3.37
2018-09-13T20:21:53.827Z,2.53
2018-09-13T20:24:22.615Z,4.23
2018-09-13T20:26:51.398Z,4.10
2018-09-13T20:29:20.411Z,3.70
2018-09-13T20:31:49.288Z,2.83
2018-09-13T20:34:19.179Z,3.20
2018-09-13T20:36:48.040Z,4.03
2018-09-13T20:39:16.957Z,3.70
2018-09-13T20:41:45.821Z,4.77
2018-09-13T20:44:14.748Z,3.47
2018-09-13T20:46:43.531Z,3.23
2018-09-13T20:49:12.434Z,3.03
2018-09-13T20:51:41.243Z,4.17
2018-09-13T20:54:10.073Z,6.03
2018-09-13T20:56:38.931Z,4.50
2018-09-13T20:59:08.583Z,3.80
2018-09-13T21:01:37.420Z,3.93
2018-09-13T21:04:06.324Z,3.63
2018-09-13T21:06:35.112Z,4.90
2018-09-13T21:09:05.797Z,5.33
2018-09-13T21:11:34.578Z,3.70
2018-09-13T21:14:03.522Z,4.47
2018-09-13T21:16:33.368Z,3.37
2018-09-13T21:19:02.290Z,3.90
2018-09-13T21:21:31.315Z,2.80
2018-09-13T21:24:00.088Z,5.23
2018-09-13T21:26:29.183Z,3.50
2018-09-13T21:28:58.115Z,2.53
2018-09-13T21:31:27.835Z,4.87
2018-09-13T21:33:57.956Z,3.20
2018-09-13T21:36:26.792Z,2.50
2018-09-13T21:38:55.600Z,3.07
2018-09-13T21:41:24.513Z,2.27
2018-09-13T21:43:53.501Z,3.03
2018-09-13T21:46:22.404Z,1.80
2018-09-13T21:48:51.234Z,3.87
2018-09-13T21:51:20.165Z,2.13
2018-09-13T21:53:49.104Z,3.10
2018-09-13T21:56:17.900Z,4.07
2018-09-13T21:58:46.744Z,5.27
2018-09-13T22:01:15.600Z,5.67
2018-09-13T22:03:45.162Z,5.10
2018-09-13T22:06:14.639Z,7.10
2018-09-13T22:08:43.480Z,9.30
2018-09-13T22:11:12.285Z,8.00
2018-09-13T22:13:41.087Z,6.47
2018-09-13T22:16:09.928Z,5.83
2018-09-13T22:18:38.736Z,6.33
2018-09-13T22:21:07.554Z,6.97
2018-09-13T22:23:36.863Z,6.60
2018-09-13T22:26:06.698Z,6.70
2018-09-13T22:28:35.564Z,7.67
2018-09-13T22:31:04.365Z,7.13
2018-09-13T22:33:34.280Z,7.83
2018-09-13T22:36:03.097Z,8.03
2018-09-13T22:38:31.922Z,8.63
2018-09-13T22:41:00.688Z,7.93
2018-09-13T22:43:34.816Z,7.40
2018-09-13T22:46:03.590Z,7.93
2018-09-13T22:48:32.384Z,8.17
2018-09-13T22:51:01.436Z,7.87
2018-09-13T22:53:30.443Z,8.87
2018-09-13T22:55:59.136Z,10.23
2018-09-13T22:58:27.971Z,10.77
2018-09-13T23:00:57.935Z,8.20
2018-09-13T23:03:26.886Z,8.37
2018-09-13T23:05:55.676Z,7.73
2018-09-13T23:08:24.480Z,8.10
2018-09-13T23:10:53.327Z,7.40
2018-09-13T23:13:22.291Z,5.63
2018-09-13T23:15:51.151Z,6.73
2018-09-13T23:18:20.931Z,6.80
2018-09-13T23:20:49.740Z,7.77
2018-09-13T23:23:18.720Z,6.07
2018-09-13T23:25:48.293Z,5.50
2018-09-13T23:28:17.082Z,5.53
2018-09-13T23:30:45.863Z,5.93
2018-09-13T23:33:14.717Z,5.90
2018-09-13T23:35:44.687Z,6.87
2018-09-13T23:38:13.528Z,7.97
2018-09-13T23:40:42.487Z,9.07
2018-09-13T23:43:11.105Z,6.53
2018-09-13T23:45:39.896Z,6.70
2018-09-13T23:48:08.744Z,7.07
2018-09-13T23:50:37.519Z,6.60
2018-09-13T23:53:06.367Z,7.13
2018-09-13T23:55:35.201Z,6.63
2018-09-13T23:58:03.983Z,7.47
